createdAt,value
2022-08-12T00:00:07.449Z,35.64
2022-08-12T00:02:54.379Z,35.62
2022-08-12T00:05:56.354Z,35.60
2022-08-12T00:08:51.868Z,35.46
2022-08-12T00:14:22.744Z,36.06
2022-08-12T00:17:08.074Z,35.69
2022-08-12T00:19:53.460Z,35.19
2022-08-12T00:22:39.663Z,35.33
2022-08-12T00:26:00.476Z,35.69
2022-08-12T00:28:31.677Z,35.85
2022-08-12T00:31:16.955Z,36.09
2022-08-12T00:34:02.411Z,35.47
2022-08-12T00:36:48.909Z,35.75
2022-08-12T00:39:36.788Z,35.26
2022-08-12T00:42:13.096Z,35.41
2022-08-12T00:44:42.291Z,34.96
2022-08-12T00:47:24.843Z,34.97
2022-08-12T00:49:54.943Z,35.15
2022-08-12T00:52:22.779Z,34.45
2022-08-12T00:54:57.432Z,34.46
2022-08-12T00:57:28.731Z,34.74
2022-08-12T01:00:01.654Z,34.62
2022-08-12T01:02:37.403Z,35.04
2022-08-12T01:05:30.468Z,34.56
2022-08-12T01:08:16.712Z,35.38
2022-08-12T01:11:04.136Z,35.43
2022-08-12T01:13:34.174Z,35.53
2022-08-12T01:16:04.562Z,35.29
2022-08-12T01:18:33.925Z,35.36
2022-08-12T01:21:29.076Z,35.25
2022-08-12T01:24:29.972Z,35.22
2022-08-12T01:26:59.562Z,35.45
2022-08-12T01:29:34.971Z,35.03
2022-08-12T01:32:09.022Z,35.99
2022-08-12T01:34:38.273Z,35.95
2022-08-12T01:37:08.291Z,36.16
2022-08-12T01:40:33.689Z,36.11
2022-08-12T01:42:41.743Z,36.78
2022-08-12T01:45:09.968Z,36.35
2022-08-12T01:47:56.242Z,36.85
2022-08-12T01:50:34.172Z,37.25
2022-08-12T01:53:13.046Z,37.19
2022-08-12T01:55:42.846Z,36.99
2022-08-12T01:58:51.430Z,36.27
2022-08-12T02:01:21.153Z,37.10
2022-08-12T02:04:56.396Z,37.16
2022-08-12T02:08:02.543Z,37.18
2022-08-12T02:11:18.867Z,36.82
2022-08-12T02:14:13.670Z,36.97
2022-08-12T02:16:58.291Z,36.63
2022-08-12T02:19:27.644Z,36.94
2022-08-12T02:22:19.061Z,36.87
2022-08-12T02:24:47.031Z,37.38
2022-08-12T02:27:17.430Z,36.98
2022-08-12T02:29:44.644Z,37.11
2022-08-12T02:32:12.381Z,37.64
2022-08-12T02:34:39.422Z,37.66
2022-08-12T02:37:09.078Z,38.07
2022-08-12T02:39:40.753Z,38.55
2022-08-12T02:42:11.875Z,38.63
2022-08-12T02:44:41.957Z,38.78
2022-08-12T02:47:18.316Z,38.96
2022-08-12T02:50:00.926Z,38.79
2022-08-12T02:52:28.623Z,39.04
2022-08-12T02:55:03.405Z,38.57
2022-08-12T02:57:31.791Z,38.40
2022-08-12T03:00:03.967Z,38.40
2022-08-12T03:02:33.463Z,38.32
2022-08-12T03:05:04.651Z,38.24
2022-08-12T03:07:59.756Z,38.00
2022-08-12T03:10:37.205Z,38.28
2022-08-12T03:13:07.275Z,38.32
2022-08-12T03:15:35.807Z,38.35
2022-08-12T03:18:24.090Z,38.16
2022-08-12T03:20:54.991Z,38.42
2022-08-12T03:23:29.830Z,38.41
2022-08-12T03:26:01.587Z,38.50
2022-08-12T03:28:49.103Z,38.30
2022-08-12T03:31:25.665Z,38.20
2022-08-12T03:34:02.241Z,38.01
2022-08-12T03:36:34.855Z,38.10
2022-08-12T03:39:45.615Z,38.20
2022-08-12T03:42:15.421Z,37.82
2022-08-12T03:45:14.568Z,38.19
2022-08-12T03:48:19.087Z,38.59
2022-08-12T03:51:06.692Z,38.58
2022-08-12T03:53:53.067Z,38.63
2022-08-12T03:56:39.013Z,38.80
2022-08-12T03:59:25.439Z,39.37
2022-08-12T04:01:57.740Z,39.58
2022-08-12T04:04:35.922Z,39.18
2022-08-12T04:07:07.778Z,39.52
2022-08-12T04:09:37.646Z,39.27
2022-08-12T04:12:26.236Z,39.28
2022-08-12T04:14:54.558Z,39.59
2022-08-12T04:17:21.437Z,39.71
2022-08-12T04:19:48.852Z,39.62
2022-08-12T04:22:16.327Z,39.75
2022-08-12T04:24:44.228Z,39.61
2022-08-12T04:27:17.226Z,39.69
2022-08-12T04:30:16.591Z,39.52
2022-08-12T04:32:32.093Z,39.29
2022-08-12T04:34:59.051Z,39.55
2022-08-12T04:37:26.009Z,39.41
2022-08-12T04:39:54.426Z,39.44
2022-08-12T04:42:21.629Z,39.26
2022-08-12T04:44:48.576Z,39.31
2022-08-12T04:47:16.903Z,39.10
2022-08-12T04:49:45.974Z,38.81
2022-08-12T04:52:13.376Z,39.22
2022-08-12T04:54:40.870Z,38.91
2022-08-12T04:57:09.686Z,38.57
2022-08-12T04:59:47.732Z,38.70
2022-08-12T05:02:21.652Z,38.67
2022-08-12T05:05:01.105Z,38.91
2022-08-12T05:07:28.428Z,38.92
2022-08-12T05:10:00.714Z,39.32
2022-08-12T05:12:37.235Z,38.74
2022-08-12T05:15:19.734Z,38.80
2022-08-12T05:17:53.538Z,38.29
2022-08-12T05:20:20.999Z,37.66
2022-08-12T05:22:49.949Z,37.25
2022-08-12T05:25:20.215Z,37.20
2022-08-12T05:27:57.865Z,36.86
2022-08-12T05:30:30.209Z,36.08
2022-08-12T05:33:00.361Z,35.98
2022-08-12T05:35:27.978Z,35.00
2022-08-12T05:38:15.003Z,34.82
2022-08-12T05:40:42.119Z,33.83
2022-08-12T05:43:08.998Z,33.31
2022-08-12T05:45:37.420Z,32.67
2022-08-12T05:48:06.851Z,32.46
2022-08-12T05:50:35.346Z,32.27
2022-08-12T05:53:02.508Z,31.96
2022-08-12T05:55:31.341Z,31.66
2022-08-12T05:57:58.854Z,31.32
2022-08-12T06:00:26.551Z,30.52
2022-08-12T06:02:56.986Z,30.92
2022-08-12T06:05:23.848Z,30.40
2022-08-12T06:08:01.676Z,30.61
2022-08-12T06:10:33.386Z,30.41
2022-08-12T06:13:05.987Z,30.82
2022-08-12T06:15:37.939Z,30.12
2022-08-12T06:18:14.036Z,30.07
2022-08-12T06:20:43.878Z,29.72
2022-08-12T06:23:11.785Z,29.13
2022-08-12T06:25:38.991Z,29.10
2022-08-12T06:28:20.252Z,29.90
2022-08-12T06:31:02.632Z,29.34
2022-08-12T06:34:00.738Z,29.54
2022-08-12T06:36:25.094Z,28.65
2022-08-12T06:38:57.145Z,28.54
2022-08-12T06:42:05.191Z,28.73
2022-08-12T06:44:29.267Z,28.11
2022-08-12T06:46:56.912Z,27.54
2022-08-12T06:49:25.307Z,27.57
2022-08-12T06:51:56.506Z,27.16
2022-08-12T06:54:30.786Z,26.67
2022-08-12T06:58:06.892Z,26.45
2022-08-12T06:59:50.949Z,26.20
2022-08-12T07:02:20.522Z,25.87
2022-08-12T07:04:48.122Z,25.61
2022-08-12T07:07:15.496Z,25.77
2022-08-12T07:10:00.073Z,25.43
2022-08-12T07:12:30.403Z,25.43
2022-08-12T07:14:58.912Z,25.43
2022-08-12T07:17:35.791Z,24.92
2022-08-12T07:20:06.578Z,24.70
2022-08-12T07:22:33.349Z,24.34
2022-08-12T07:25:18.407Z,25.17
2022-08-12T07:27:46.604Z,25.15
2022-08-12T07:30:14.321Z,24.94
2022-08-12T07:32:41.249Z,25.40
2022-08-12T07:35:08.625Z,25.23
2022-08-12T07:37:40.599Z,24.95
2022-08-12T07:40:11.669Z,25.11
2022-08-12T07:42:40.045Z,24.88
2022-08-12T07:45:07.463Z,24.48
2022-08-12T07:47:37.874Z,24.52
2022-08-12T07:50:09.168Z,24.29
2022-08-12T07:52:42.691Z,23.14
2022-08-12T07:55:10.715Z,23.06
2022-08-12T07:57:59.408Z,22.20
2022-08-12T08:00:28.016Z,22.57
2022-08-12T08:02:55.040Z,22.48
2022-08-12T08:05:24.916Z,22.07
2022-08-12T08:07:53.399Z,21.33
2022-08-12T08:10:20.950Z,21.61
2022-08-12T08:12:53.444Z,21.74
2022-08-12T08:16:00.697Z,21.99
2022-08-12T08:18:26.461Z,20.50
2022-08-12T08:20:55.245Z,19.82
2022-08-12T08:23:22.004Z,19.33
2022-08-12T08:25:56.400Z,19.79
2022-08-12T08:28:23.255Z,18.35
2022-08-12T08:30:51.239Z,19.01
2022-08-12T08:33:24.524Z,18.60
2022-08-12T08:36:06.786Z,17.57
2022-08-12T08:38:41.650Z,16.88
2022-08-12T08:42:19.265Z,17.02
2022-08-12T08:44:27.104Z,16.95
2022-08-12T08:46:55.631Z,16.71
2022-08-12T08:49:25.549Z,16.14
2022-08-12T08:51:52.297Z,15.85
2022-08-12T08:54:19.031Z,15.28
2022-08-12T08:56:49.956Z,14.66
2022-08-12T08:59:20.053Z,16.18
2022-08-12T09:01:47.491Z,15.77
2022-08-12T09:05:10.999Z,15.95
2022-08-12T09:07:16.718Z,15.80
2022-08-12T09:10:02.798Z,14.96
2022-08-12T09:12:54.115Z,14.33
2022-08-12T09:15:35.705Z,14.49
2022-08-12T09:18:08.812Z,14.04
2022-08-12T09:20:38.246Z,14.27
2022-08-12T09:23:58.771Z,14.44
2022-08-12T09:25:55.085Z,13.63
2022-08-12T09:28:31.326Z,13.39
2022-08-12T09:30:59.862Z,13.51
2022-08-12T09:34:25.345Z,13.38
2022-08-12T09:36:30.677Z,14.18
2022-08-12T09:38:59.015Z,14.07
2022-08-12T09:42:09.309Z,13.37
2022-08-12T09:44:39.466Z,13.06
2022-08-12T09:47:10.768Z,13.09
2022-08-12T09:49:42.186Z,12.88
2022-08-12T09:52:15.537Z,12.88
2022-08-12T09:54:43.786Z,13.38
2022-08-12T09:58:07.287Z,12.61
2022-08-12T10:00:18.754Z,12.55
2022-08-12T10:03:32.098Z,12.37
2022-08-12T10:06:20.550Z,12.11
2022-08-12T10:08:49.669Z,11.89
2022-08-12T10:11:41.353Z,12.33
2022-08-12T10:14:34.618Z,12.01
2022-08-12T10:17:02.083Z,11.69
2022-08-12T10:19:36.125Z,11.16
2022-08-12T10:22:16.441Z,11.71
2022-08-12T10:25:16.388Z,10.90
2022-08-12T10:28:07.064Z,11.44
2022-08-12T10:30:46.802Z,11.35
2022-08-12T10:33:30.655Z,11.44
2022-08-12T10:36:00.323Z,10.36
2022-08-12T10:38:37.713Z,10.23
2022-08-12T10:41:58.377Z,10.05
2022-08-12T10:44:16.754Z,8.88
2022-08-12T10:46:49.111Z,9.27
2022-08-12T10:50:03.457Z,8.92
2022-08-12T10:52:34.836Z,8.63
2022-08-12T10:54:55.489Z,9.45
2022-08-12T10:58:13.572Z,9.78
2022-08-12T11:00:31.165Z,9.33
2022-08-12T11:04:27.681Z,9.25
2022-08-12T11:07:07.394Z,9.22
2022-08-12T11:08:42.820Z,9.60
2022-08-12T11:11:17.539Z,8.80
2022-08-12T11:13:49.044Z,9.18
2022-08-12T11:16:22.991Z,9.59
2022-08-12T11:18:54.950Z,9.72
2022-08-12T11:21:22.722Z,9.52
2022-08-12T11:24:25.613Z,9.58
2022-08-12T11:30:05.225Z,9.28
2022-08-12T11:32:16.831Z,8.46
2022-08-12T11:34:51.330Z,8.73
2022-08-12T11:37:26.029Z,8.58
2022-08-12T11:42:39.771Z,8.37
2022-08-12T11:45:16.881Z,8.92
2022-08-12T11:47:44.587Z,9.25
2022-08-12T11:50:19.568Z,9.47
2022-08-12T11:52:56.337Z,9.32
2022-08-12T11:55:25.082Z,9.70
2022-08-12T11:58:51.087Z,10.41
2022-08-12T12:03:44.121Z,9.52
2022-08-12T12:06:17.910Z,9.43
2022-08-12T12:08:51.000Z,9.69
2022-08-12T12:11:19.805Z,9.54
2022-08-12T12:14:08.743Z,9.98
2022-08-12T12:16:39.566Z,10.38
2022-08-12T12:19:08.896Z,11.18
2022-08-12T12:21:47.142Z,11.65
2022-08-12T12:24:21.892Z,13.01
2022-08-12T12:27:00.277Z,13.12
2022-08-12T12:30:18.483Z,14.23
2022-08-12T12:32:19.327Z,14.70
2022-08-12T12:35:14.686Z,15.20
2022-08-12T12:38:03.643Z,15.69
2022-08-12T12:40:34.447Z,16.14
2022-08-12T12:43:05.145Z,16.20
2022-08-12T12:45:35.528Z,16.54
2022-08-12T12:48:03.888Z,16.25
2022-08-12T12:50:45.393Z,16.30
2022-08-12T12:54:07.118Z,16.50
2022-08-12T12:56:14.587Z,16.27
2022-08-12T12:58:43.617Z,15.65
2022-08-12T13:01:26.908Z,15.90
2022-08-12T13:04:02.006Z,16.11
2022-08-12T13:06:31.795Z,16.38
2022-08-12T13:09:02.482Z,16.86
2022-08-12T13:11:38.983Z,16.96
2022-08-12T13:14:28.234Z,16.90
2022-08-12T13:17:00.233Z,16.64
2022-08-12T13:19:38.743Z,17.14
2022-08-12T13:22:19.221Z,17.33
2022-08-12T13:24:55.777Z,17.10
2022-08-12T13:27:48.428Z,17.29
2022-08-12T13:30:20.372Z,17.60
2022-08-12T13:32:58.751Z,17.96
2022-08-12T13:35:33.626Z,17.68
2022-08-12T13:38:14.217Z,17.87
2022-08-12T13:40:41.153Z,17.80
2022-08-12T13:43:07.962Z,17.80
2022-08-12T13:45:40.937Z,17.18
2022-08-12T13:48:08.394Z,17.61
2022-08-12T13:50:39.732Z,17.35
2022-08-12T13:53:24.670Z,18.17
2022-08-12T13:56:01.635Z,18.21
2022-08-12T13:58:30.832Z,18.55
2022-08-12T14:01:05.852Z,18.68
2022-08-12T14:03:50.351Z,19.19
2022-08-12T14:06:19.642Z,19.06
2022-08-12T14:08:49.841Z,19.00
2022-08-12T14:11:19.073Z,18.33
2022-08-12T14:14:02.771Z,18.14
2022-08-12T14:16:46.882Z,18.10
2022-08-12T14:19:24.512Z,17.81
2022-08-12T14:22:01.619Z,17.58
2022-08-12T14:24:40.943Z,17.62
2022-08-12T14:27:10.261Z,17.51
2022-08-12T14:30:05.684Z,17.13
2022-08-12T14:32:35.394Z,17.03
2022-08-12T14:35:09.386Z,16.97
2022-08-12T14:37:55.612Z,17.42
2022-08-12T14:40:25.953Z,17.96
2022-08-12T14:42:56.869Z,18.05
2022-08-12T14:45:24.681Z,18.17
2022-08-12T14:48:13.126Z,18.22
2022-08-12T14:51:09.705Z,18.30
2022-08-12T14:57:05.976Z,18.31
2022-08-12T14:59:26.341Z,17.90
2022-08-12T15:01:54.534Z,17.66
2022-08-12T15:04:26.112Z,17.92
2022-08-12T15:06:53.321Z,18.11
2022-08-12T15:09:28.675Z,18.22
2022-08-12T15:12:03.237Z,17.58
2022-08-12T15:14:31.878Z,17.57
2022-08-12T15:17:02.617Z,17.88
2022-08-12T15:20:31.888Z,17.73
2022-08-12T15:22:37.786Z,17.99
2022-08-12T15:25:07.570Z,17.79
2022-08-12T15:28:20.424Z,17.67
2022-08-12T15:30:30.363Z,17.98
2022-08-12T15:32:57.776Z,18.03
2022-08-12T15:35:27.559Z,17.89
2022-08-12T15:38:08.620Z,17.81
2022-08-12T15:40:48.362Z,17.84
2022-08-12T15:43:51.417Z,17.91
2022-08-12T15:46:06.222Z,18.11
2022-08-12T15:48:33.431Z,18.10
2022-08-12T15:51:03.014Z,18.62
2022-08-12T15:53:53.070Z,18.31
2022-08-12T15:56:29.509Z,17.99
2022-08-12T15:58:59.160Z,18.32
2022-08-12T16:01:35.154Z,18.64
2022-08-12T16:04:05.137Z,18.62
2022-08-12T16:09:56.345Z,18.36
2022-08-12T16:12:11.184Z,18.70
2022-08-12T16:14:39.713Z,18.44
2022-08-12T16:17:08.806Z,18.81
2022-08-12T16:20:02.409Z,19.18
2022-08-12T16:22:25.725Z,19.06
2022-08-12T16:24:54.066Z,19.15
2022-08-12T16:27:23.683Z,19.17
2022-08-12T16:29:57.122Z,19.62
2022-08-12T16:32:31.291Z,19.71
2022-08-12T16:34:59.999Z,20.23
2022-08-12T16:38:15.560Z,19.37
2022-08-12T16:40:14.735Z,19.34
2022-08-12T16:42:53.672Z,19.34
2022-08-12T16:45:32.190Z,20.51
2022-08-12T16:48:34.948Z,20.15
2022-08-12T16:51:09.338Z,20.19
2022-08-12T16:53:44.118Z,19.88
2022-08-12T16:56:12.403Z,20.82
2022-08-12T16:58:40.272Z,19.84
2022-08-12T17:01:11.831Z,20.23
2022-08-12T17:03:59.233Z,21.94
2022-08-12T17:06:28.076Z,19.88
2022-08-12T17:09:02.649Z,20.42
2022-08-12T17:11:33.249Z,21.68
2022-08-12T17:14:01.531Z,20.06
2022-08-12T17:16:30.337Z,20.52
2022-08-12T17:18:59.640Z,20.56
2022-08-12T17:21:41.399Z,21.06
2022-08-12T17:24:21.582Z,20.76
2022-08-12T17:26:53.687Z,21.03
2022-08-12T17:29:31.876Z,21.31
2022-08-12T17:32:09.943Z,21.26
2022-08-12T17:34:55.953Z,21.24
2022-08-12T17:37:22.749Z,21.92
2022-08-12T17:40:12.500Z,21.34
2022-08-12T17:42:38.453Z,21.00
2022-08-12T17:45:18.500Z,21.31
2022-08-12T17:48:04.501Z,21.30
2022-08-12T17:50:43.155Z,21.62
2022-08-12T17:53:11.351Z,21.54
2022-08-12T17:55:47.453Z,21.32
2022-08-12T17:58:35.651Z,21.54
2022-08-12T18:01:05.973Z,21.68
2022-08-12T18:04:05.054Z,21.51
2022-08-12T18:06:27.886Z,21.43
2022-08-12T18:08:58.722Z,21.57
2022-08-12T18:12:04.697Z,21.85
2022-08-12T18:14:37.327Z,21.79
2022-08-12T18:17:08.613Z,22.10
2022-08-12T18:20:06.244Z,21.90
2022-08-12T18:22:30.638Z,22.16
2022-08-12T18:25:05.282Z,22.50
2022-08-12T18:27:46.794Z,22.62
2022-08-12T18:30:20.304Z,22.67
2022-08-12T18:33:03.397Z,22.57
2022-08-12T18:35:47.379Z,22.75
2022-08-12T18:38:22.676Z,22.78
2022-08-12T18:41:21.797Z,22.93
2022-08-12T18:44:00.169Z,22.91
2022-08-12T18:46:40.653Z,23.16
2022-08-12T18:49:18.938Z,23.22
2022-08-12T18:52:03.871Z,23.30
2022-08-12T18:54:41.372Z,23.37
2022-08-12T18:57:45.771Z,23.77
2022-08-12T19:00:06.494Z,23.85
2022-08-12T19:02:36.701Z,24.01
2022-08-12T19:05:10.705Z,24.38
2022-08-12T19:07:57.838Z,24.34
2022-08-12T19:10:29.758Z,24.53
2022-08-12T19:13:23.029Z,24.67
2022-08-12T19:15:58.265Z,24.63
2022-08-12T19:18:29.400Z,24.89
2022-08-12T19:20:58.525Z,25.15
2022-08-12T19:23:33.793Z,25.06
2022-08-12T19:26:03.399Z,25.36
2022-08-12T19:28:35.706Z,25.21
2022-08-12T19:31:56.927Z,25.34
2022-08-12T19:34:56.284Z,25.72
2022-08-12T19:37:15.353Z,25.88
2022-08-12T19:40:10.092Z,26.27
2022-08-12T19:42:33.839Z,25.68
2022-08-12T19:45:04.667Z,25.72
2022-08-12T19:47:39.096Z,25.88
2022-08-12T19:50:06.923Z,26.54
2022-08-12T19:52:39.009Z,26.05
2022-08-12T19:55:11.479Z,25.65
2022-08-12T19:58:02.243Z,26.31
2022-08-12T20:00:31.752Z,26.04
2022-08-12T20:03:00.547Z,26.02
2022-08-12T20:06:04.569Z,26.39
2022-08-12T20:08:27.922Z,26.45
2022-08-12T20:12:09.043Z,26.46
2022-08-12T20:14:01.317Z,26.65
2022-08-12T20:16:57.450Z,26.71
2022-08-12T20:19:52.390Z,26.57
2022-08-12T20:22:24.531Z,26.43
2022-08-12T20:25:01.054Z,27.06
2022-08-12T20:28:04.585Z,27.41
2022-08-12T20:30:20.769Z,26.78
2022-08-12T20:33:16.763Z,27.54
2022-08-12T20:36:06.712Z,27.61
2022-08-12T20:38:32.468Z,27.62
2022-08-12T20:41:00.535Z,27.11
2022-08-12T20:43:28.357Z,26.95
2022-08-12T20:45:58.895Z,27.16
2022-08-12T20:48:29.339Z,27.58
2022-08-12T20:51:04.472Z,27.21
2022-08-12T20:53:53.824Z,27.29
2022-08-12T20:56:36.826Z,28.15
2022-08-12T20:59:19.873Z,28.25
2022-08-12T21:01:48.620Z,27.72
2022-08-12T21:04:36.411Z,27.71
2022-08-12T21:07:09.125Z,28.14
2022-08-12T21:09:40.643Z,28.58
2022-08-12T21:12:37.440Z,27.93
2022-08-12T21:15:05.704Z,28.32
2022-08-12T21:18:08.638Z,28.45
2022-08-12T21:20:35.553Z,28.88
2022-08-12T21:23:05.750Z,28.59
2022-08-12T21:25:44.535Z,28.48
2022-08-12T21:28:14.505Z,28.47
2022-08-12T21:31:10.881Z,28.36
2022-08-12T21:33:32.148Z,28.60
2022-08-12T21:36:22.746Z,28.74
2022-08-12T21:39:21.452Z,28.74
2022-08-12T21:41:52.015Z,29.26
2022-08-12T21:44:43.022Z,29.45
2022-08-12T21:47:20.966Z,29.28
2022-08-12T21:50:03.460Z,29.20
2022-08-12T21:52:41.976Z,29.31
2022-08-12T21:55:18.233Z,29.26
2022-08-12T21:57:50.717Z,29.31
2022-08-12T22:00:33.189Z,29.16
2022-08-12T22:03:55.043Z,29.13
2022-08-12T22:06:20.289Z,29.47
2022-08-12T22:09:03.992Z,29.31
2022-08-12T22:11:41.659Z,29.35
2022-08-12T22:14:21.764Z,29.61
2022-08-12T22:16:52.793Z,29.39
2022-08-12T22:19:20.982Z,29.69
2022-08-12T22:21:52.234Z,29.61
2022-08-12T22:24:26.845Z,29.60
2022-08-12T22:27:08.289Z,30.28
2022-08-12T22:30:06.963Z,29.74
2022-08-12T22:32:38.658Z,29.81
2022-08-12T22:35:29.481Z,29.92
2022-08-12T22:38:07.368Z,30.17
2022-08-12T22:40:38.775Z,30.53
2022-08-12T22:43:24.489Z,30.44
2022-08-12T22:46:09.903Z,30.90
2022-08-12T22:48:36.620Z,30.70
2022-08-12T22:51:21.922Z,30.79
2022-08-12T22:53:53.611Z,31.19
2022-08-12T22:56:31.057Z,30.92
2022-08-12T22:59:03.087Z,31.15
2022-08-12T23:01:52.292Z,31.03
2022-08-12T23:04:27.652Z,31.58
2022-08-12T23:06:57.149Z,31.31
2022-08-12T23:09:45.923Z,31.31
2022-08-12T23:12:37.430Z,31.35
2022-08-12T23:15:08.870Z,31.49
2022-08-12T23:17:41.087Z,31.71
2022-08-12T23:20:10.938Z,31.54
2022-08-12T23:22:38.715Z,31.73
2022-08-12T23:25:19.012Z,31.51
2022-08-12T23:28:29.303Z,31.90
2022-08-12T23:30:58.697Z,32.12
2022-08-12T23:34:01.799Z,31.71
2022-08-12T23:36:32.713Z,32.00
2022-08-12T23:40:13.771Z,32.12
2022-08-12T23:42:18.125Z,32.29
2022-08-12T23:44:43.825Z,32.58
2022-08-12T23:47:12.505Z,32.47
2022-08-12T23:49:57.542Z,32.48
2022-08-12T23:52:33.828Z,33.16
2022-08-12T23:55:06.988Z,32.69
2022-08-12T23:58:17.734Z,32.80
